createdAt,value
2022-09-11T00:01:35.055Z,2.67
2022-09-11T00:04:03.135Z,2.03
2022-09-11T00:06:31.032Z,1.42
2022-09-11T00:09:03.935Z,1.48
2022-09-11T00:11:33.667Z,3.55
2022-09-11T00:14:01.153Z,2.28
2022-09-11T00:16:29.357Z,1.58
2022-09-11T00:18:58.968Z,1.85
2022-09-11T00:21:26.753Z,3.10
2022-09-11T00:23:53.687Z,1.67
2022-09-11T00:26:21.801Z,3.72
2022-09-11T00:28:50.695Z,2.95
2022-09-11T00:31:19.701Z,2.60
2022-09-11T00:33:46.599Z,2.22
2022-09-11T00:36:19.602Z,2.67
2022-09-11T00:38:47.716Z,2.47
2022-09-11T00:41:21.527Z,1.98
2022-09-11T00:44:16.305Z,1.42
2022-09-11T00:46:50.020Z,1.58
2022-09-11T00:49:16.870Z,3.60
2022-09-11T00:51:47.920Z,2.72
2022-09-11T00:54:19.453Z,3.22
2022-09-11T00:56:47.474Z,2.60
2022-09-11T00:59:15.290Z,3.78
2022-09-11T01:01:42.123Z,2.83
2022-09-11T01:04:09.843Z,1.65
2022-09-11T01:06:36.900Z,2.45
2022-09-11T01:09:04.205Z,2.15
2022-09-11T01:11:40.440Z,2.75
2022-09-11T01:14:21.812Z,4.35
2022-09-11T01:17:15.272Z,3.65
2022-09-11T01:20:06.636Z,1.92
2022-09-11T01:22:57.696Z,4.55
2022-09-11T01:25:39.681Z,2.42
2022-09-11T01:28:20.691Z,4.10
2022-09-11T01:30:54.846Z,2.58
2022-09-11T01:33:31.033Z,2.55
2022-09-11T01:36:23.697Z,3.45
2022-09-11T01:38:54.141Z,3.35
2022-09-11T01:41:32.028Z,2.30
2022-09-11T01:44:40.715Z,2.58
2022-09-11T01:47:11.802Z,3.35
2022-09-11T01:49:44.986Z,2.55
2022-09-11T01:52:23.203Z,2.25
2022-09-11T01:55:01.370Z,2.83
2022-09-11T01:57:36.614Z,2.63
2022-09-11T02:00:08.676Z,2.08
2022-09-11T02:03:17.492Z,3.03
2022-09-11T02:05:52.011Z,1.80
2022-09-11T02:08:54.522Z,1.52
2022-09-11T02:11:23.489Z,2.05
2022-09-11T02:14:00.862Z,2.92
2022-09-11T02:17:03.815Z,2.90
2022-09-11T02:19:31.599Z,2.40
2022-09-11T02:21:59.347Z,3.22
2022-09-11T02:24:27.438Z,3.55
2022-09-11T02:27:05.250Z,4.15
2022-09-11T02:29:33.354Z,5.60
2022-09-11T02:32:01.269Z,3.38
2022-09-11T02:34:33.485Z,5.03
2022-09-11T02:37:21.268Z,3.45
2022-09-11T02:40:09.265Z,6.28
2022-09-11T02:43:09.993Z,3.60
2022-09-11T02:45:54.381Z,4.07
2022-09-11T02:48:43.357Z,5.70
2022-09-11T02:51:38.376Z,4.93
2022-09-11T02:54:20.158Z,4.10
2022-09-11T02:56:52.398Z,6.10
2022-09-11T02:59:26.771Z,5.47
2022-09-11T03:01:56.026Z,5.35
2022-09-11T03:04:26.038Z,2.88
2022-09-11T03:06:54.834Z,5.03
2022-09-11T03:09:22.784Z,3.60
2022-09-11T03:11:54.990Z,5.50
2022-09-11T03:14:21.983Z,4.32
2022-09-11T03:16:50.050Z,5.10
2022-09-11T03:19:19.190Z,7.78
2022-09-11T03:21:46.015Z,8.32
2022-09-11T03:24:13.163Z,6.50
2022-09-11T03:26:40.261Z,7.95
2022-09-11T03:29:08.542Z,5.90
2022-09-11T03:31:39.097Z,6.40
2022-09-11T03:34:07.224Z,5.28
2022-09-11T03:36:34.499Z,4.40
2022-09-11T03:39:01.955Z,5.50
2022-09-11T03:41:30.645Z,5.15
2022-09-11T03:43:57.836Z,5.00
2022-09-11T03:46:25.625Z,6.28
2022-09-11T03:48:53.336Z,7.82
2022-09-11T03:51:21.231Z,5.82
2022-09-11T03:53:48.253Z,5.82
2022-09-11T03:56:16.082Z,4.93
2022-09-11T03:58:48.111Z,5.25
2022-09-11T04:01:19.161Z,5.55
2022-09-11T04:03:46.740Z,4.72
2022-09-11T04:06:23.287Z,6.85
2022-09-11T04:08:50.239Z,7.35
2022-09-11T04:11:18.841Z,4.60
2022-09-11T04:13:45.730Z,6.00
2022-09-11T04:16:17.940Z,5.95
2022-09-11T04:18:48.930Z,4.90
2022-09-11T04:21:17.836Z,6.28
2022-09-11T04:23:56.580Z,4.65
2022-09-11T04:26:27.555Z,5.22
2022-09-11T04:29:01.233Z,4.55
2022-09-11T04:31:28.846Z,4.57
2022-09-11T04:33:58.049Z,6.03
2022-09-11T04:36:30.077Z,3.83
2022-09-11T04:38:58.800Z,4.35
2022-09-11T04:41:26.965Z,3.75
2022-09-11T04:43:57.562Z,4.22
2022-09-11T04:46:26.215Z,4.40
2022-09-11T04:49:04.577Z,5.63
2022-09-11T04:51:34.834Z,4.63
2022-09-11T04:54:02.996Z,4.65
2022-09-11T04:56:39.526Z,4.72
2022-09-11T04:59:16.088Z,5.55
2022-09-11T05:01:50.329Z,7.25
2022-09-11T05:04:21.801Z,4.40
2022-09-11T05:06:51.356Z,6.47
2022-09-11T05:09:19.511Z,6.35
2022-09-11T05:11:48.157Z,5.07
2022-09-11T05:14:15.939Z,4.10
2022-09-11T05:16:45.537Z,6.10
2022-09-11T05:19:14.581Z,7.00
2022-09-11T05:21:43.397Z,4.32
2022-09-11T05:24:10.426Z,4.90
2022-09-11T05:26:38.243Z,8.88
2022-09-11T05:29:11.735Z,5.20
2022-09-11T05:31:55.082Z,6.50
2022-09-11T05:34:22.284Z,6.15
2022-09-11T05:36:50.373Z,3.92
2022-09-11T05:39:18.069Z,3.83
2022-09-11T05:41:44.864Z,4.85
2022-09-11T05:44:13.316Z,4.65
2022-09-11T05:46:40.958Z,4.63
2022-09-11T05:49:07.846Z,7.18
2022-09-11T05:51:37.660Z,4.32
2022-09-11T05:54:05.695Z,4.60
2022-09-11T05:56:33.769Z,3.35
2022-09-11T05:59:11.001Z,5.22
2022-09-11T06:01:37.921Z,3.75
2022-09-11T06:04:15.761Z,2.15
2022-09-11T06:06:47.956Z,4.85
2022-09-11T06:09:15.811Z,4.50
2022-09-11T06:11:42.824Z,3.95
2022-09-11T06:14:10.066Z,4.22
2022-09-11T06:16:38.496Z,3.70
2022-09-11T06:19:11.079Z,4.63
2022-09-11T06:21:37.871Z,2.80
2022-09-11T06:24:11.334Z,4.13
2022-09-11T06:26:38.818Z,2.92
2022-09-11T06:29:05.718Z,2.85
2022-09-11T06:31:36.284Z,2.45
2022-09-11T06:34:03.463Z,2.40
2022-09-11T06:36:31.652Z,3.65
2022-09-11T06:39:01.080Z,3.13
2022-09-11T06:41:28.771Z,4.55
2022-09-11T06:44:01.933Z,3.13
2022-09-11T06:46:30.312Z,1.83
2022-09-11T06:48:58.943Z,3.15
2022-09-11T06:51:28.258Z,3.50
2022-09-11T06:53:58.327Z,3.20
2022-09-11T06:56:32.084Z,4.55
2022-09-11T06:59:00.552Z,3.00
2022-09-11T07:01:31.211Z,2.75
2022-09-11T07:04:02.744Z,3.72
2022-09-11T07:06:32.346Z,2.28
2022-09-11T07:09:02.542Z,2.60
2022-09-11T07:11:44.974Z,2.80
2022-09-11T07:14:12.443Z,2.97
2022-09-11T07:16:42.504Z,2.50
2022-09-11T07:19:12.435Z,3.83
2022-09-11T07:21:40.175Z,3.38
2022-09-11T07:24:08.693Z,3.78
2022-09-11T07:26:39.792Z,2.67
2022-09-11T07:29:13.038Z,2.95
2022-09-11T07:31:40.279Z,2.47
2022-09-11T07:34:07.329Z,3.20
2022-09-11T07:36:35.844Z,3.25
2022-09-11T07:39:06.437Z,2.08
2022-09-11T07:42:02.468Z,1.60
2022-09-11T07:44:35.169Z,2.92
2022-09-11T07:47:02.312Z,2.33
2022-09-11T07:49:32.372Z,2.60
2022-09-11T07:51:59.402Z,3.10
2022-09-11T07:54:38.033Z,2.65
2022-09-11T07:57:05.812Z,2.00
2022-09-11T07:59:32.709Z,2.45
2022-09-11T08:01:59.718Z,2.40
2022-09-11T08:04:26.800Z,2.35
2022-09-11T08:06:54.274Z,3.35
2022-09-11T08:09:27.430Z,2.40
2022-09-11T08:11:58.568Z,3.78
2022-09-11T08:14:27.477Z,4.45
2022-09-11T08:16:58.313Z,3.83
2022-09-11T08:19:27.825Z,2.30
2022-09-11T08:21:58.150Z,3.35
2022-09-11T08:24:25.034Z,3.05
2022-09-11T08:26:57.093Z,2.13
2022-09-11T08:29:25.619Z,1.67
2022-09-11T08:31:53.023Z,3.22
2022-09-11T08:34:22.216Z,3.20
2022-09-11T08:36:50.696Z,2.00
2022-09-11T08:39:17.697Z,2.72
2022-09-11T08:41:53.707Z,4.00
2022-09-11T08:44:27.393Z,2.47
2022-09-11T08:47:19.018Z,2.20
2022-09-11T08:49:58.958Z,4.57
2022-09-11T08:52:27.608Z,3.38
2022-09-11T08:54:58.198Z,3.63
2022-09-11T08:57:39.397Z,1.30
2022-09-11T09:00:24.979Z,1.83
2022-09-11T09:03:19.800Z,3.40
2022-09-11T09:06:25.388Z,3.20
2022-09-11T09:09:00.602Z,1.63
2022-09-11T09:11:40.698Z,3.22
2022-09-11T09:14:31.312Z,3.15
2022-09-11T09:17:05.020Z,2.00
2022-09-11T09:19:47.408Z,1.42
2022-09-11T09:22:38.302Z,2.30
2022-09-11T09:25:11.999Z,1.83
2022-09-11T09:27:47.188Z,2.67
2022-09-11T09:30:22.036Z,3.17
2022-09-11T09:32:58.551Z,2.22
2022-09-11T09:35:51.838Z,5.05
2022-09-11T09:38:27.278Z,1.73
2022-09-11T09:41:01.939Z,1.77
2022-09-11T09:43:41.405Z,1.02
2022-09-11T09:46:16.631Z,1.88
2022-09-11T09:48:44.007Z,1.70
2022-09-11T09:51:15.019Z,1.17
2022-09-11T09:54:05.890Z,2.80
2022-09-11T09:56:37.639Z,1.65
2022-09-11T09:59:18.312Z,2.40
2022-09-11T10:01:50.741Z,2.42
2022-09-11T10:04:20.414Z,2.30
2022-09-11T10:06:49.634Z,3.33
2022-09-11T10:09:27.096Z,1.75
2022-09-11T10:12:01.074Z,2.30
2022-09-11T10:14:50.374Z,1.05
2022-09-11T10:17:37.065Z,1.83
2022-09-11T10:20:15.982Z,3.25
2022-09-11T10:22:43.311Z,1.35
2022-09-11T10:25:14.240Z,1.23
2022-09-11T10:28:04.753Z,1.38
2022-09-11T10:31:00.578Z,1.50
2022-09-11T10:33:37.176Z,2.30
2022-09-11T10:36:09.032Z,1.10
2022-09-11T10:38:45.141Z,1.50
2022-09-11T10:41:19.250Z,2.17
2022-09-11T10:43:56.022Z,2.25
2022-09-11T10:46:40.720Z,1.27
2022-09-11T10:49:21.829Z,2.30
2022-09-11T10:52:03.819Z,0.95
2022-09-11T10:54:53.278Z,1.85
2022-09-11T10:57:33.219Z,0.95
2022-09-11T11:00:14.936Z,1.42
2022-09-11T11:02:48.876Z,0.65
2022-09-11T11:05:27.893Z,1.70
2022-09-11T11:08:14.880Z,2.05
2022-09-11T11:10:53.433Z,1.00
2022-09-11T11:13:33.786Z,2.40
2022-09-11T11:16:20.198Z,1.33
2022-09-11T11:19:00.753Z,1.25
2022-09-11T11:22:03.999Z,1.33
2022-09-11T11:24:46.440Z,1.70
2022-09-11T11:27:30.074Z,2.25
2022-09-11T11:30:08.364Z,0.90
2022-09-11T11:33:02.305Z,0.73
2022-09-11T11:35:44.798Z,1.50
2022-09-11T11:38:44.105Z,0.80
2022-09-11T11:41:42.548Z,0.70
2022-09-11T11:44:15.814Z,0.93
2022-09-11T11:46:52.192Z,1.33
2022-09-11T11:49:26.216Z,1.55
2022-09-11T11:52:02.560Z,0.93
2022-09-11T11:54:45.407Z,0.60
2022-09-11T11:57:18.603Z,1.40
2022-09-11T12:00:03.531Z,0.68
2022-09-11T12:03:07.586Z,0.90
2022-09-11T12:05:34.756Z,1.02
2022-09-11T12:08:02.188Z,1.58
2022-09-11T12:10:34.221Z,1.25
2022-09-11T12:13:05.666Z,0.50
2022-09-11T12:15:34.619Z,0.50
2022-09-11T12:18:03.357Z,1.40
2022-09-11T12:20:40.791Z,1.05
2022-09-11T12:23:30.982Z,0.90
2022-09-11T12:26:08.275Z,1.38
2022-09-11T12:28:35.794Z,1.17
2022-09-11T12:31:14.002Z,0.70
2022-09-11T12:33:44.314Z,2.25
2022-09-11T12:36:17.023Z,0.65
2022-09-11T12:38:48.866Z,1.45
2022-09-11T12:41:34.577Z,0.70
2022-09-11T12:44:06.416Z,0.80
2022-09-11T12:46:34.349Z,0.98
2022-09-11T12:49:22.271Z,1.20
2022-09-11T12:52:00.390Z,0.60
2022-09-11T12:54:45.380Z,0.70
2022-09-11T12:57:19.642Z,1.27
2022-09-11T12:59:53.381Z,0.40
2022-09-11T13:02:26.007Z,0.80
2022-09-11T13:04:54.817Z,0.82
2022-09-11T13:07:33.796Z,0.90
2022-09-11T13:10:08.770Z,0.77
2022-09-11T13:12:35.577Z,0.95
2022-09-11T13:15:02.559Z,0.80
2022-09-11T13:17:30.547Z,0.93
2022-09-11T13:20:22.996Z,0.88
2022-09-11T13:22:56.148Z,1.92
2022-09-11T13:25:28.093Z,1.65
2022-09-11T13:28:01.375Z,0.70
2022-09-11T13:30:28.547Z,0.35
2022-09-11T13:33:14.534Z,0.60
2022-09-11T13:35:45.829Z,1.25
2022-09-11T13:38:23.553Z,0.93
2022-09-11T13:41:08.825Z,0.30
2022-09-11T13:43:44.251Z,0.55
2022-09-11T13:46:24.771Z,0.73
2022-09-11T13:48:57.848Z,0.85
2022-09-11T13:51:31.878Z,1.60
2022-09-11T13:54:11.609Z,0.57
2022-09-11T13:56:45.149Z,0.32
2022-09-11T13:59:39.763Z,0.20
2022-09-11T14:02:40.291Z,0.50
2022-09-11T14:05:23.482Z,0.73
2022-09-11T14:08:24.602Z,0.40
2022-09-11T14:11:02.309Z,0.55
2022-09-11T14:13:49.684Z,0.50
2022-09-11T14:16:16.621Z,0.98
2022-09-11T14:18:50.335Z,0.63
2022-09-11T14:21:19.121Z,1.00
2022-09-11T14:23:50.547Z,1.02
2022-09-11T14:26:31.236Z,0.35
2022-09-11T14:29:36.308Z,1.10
2022-09-11T14:32:28.079Z,0.30
2022-09-11T14:34:54.961Z,0.40
2022-09-11T14:37:22.390Z,1.25
2022-09-11T14:39:56.770Z,0.93
2022-09-11T14:42:27.684Z,0.28
2022-09-11T14:44:54.525Z,0.93
2022-09-11T14:47:26.558Z,1.35
2022-09-11T14:49:55.373Z,1.00
2022-09-11T14:52:26.506Z,0.80
2022-09-11T14:54:53.691Z,0.55
2022-09-11T14:57:27.268Z,1.05
2022-09-11T14:59:54.270Z,0.40
2022-09-11T15:02:24.305Z,0.55
2022-09-11T15:04:53.380Z,0.35
2022-09-11T15:07:24.063Z,0.40
2022-09-11T15:09:52.862Z,0.73
2022-09-11T15:12:20.716Z,0.80
2022-09-11T15:14:57.547Z,0.40
2022-09-11T15:17:31.659Z,0.68
2022-09-11T15:20:00.267Z,1.02
2022-09-11T15:22:27.713Z,0.63
2022-09-11T15:24:56.444Z,1.58
2022-09-11T15:27:25.181Z,0.55
2022-09-11T15:29:53.110Z,0.30
2022-09-11T15:32:21.256Z,0.85
2022-09-11T15:34:48.050Z,0.47
2022-09-11T15:37:16.915Z,0.38
2022-09-11T15:39:43.957Z,0.30
2022-09-11T15:42:12.036Z,0.52
2022-09-11T15:44:38.801Z,0.75
2022-09-11T15:47:06.226Z,0.73
2022-09-11T15:49:39.256Z,0.20
2022-09-11T15:52:06.215Z,1.05
2022-09-11T15:54:33.108Z,0.20
2022-09-11T15:56:59.934Z,0.40
2022-09-11T15:59:26.692Z,0.55
2022-09-11T16:01:53.658Z,0.50
2022-09-11T16:04:21.935Z,1.15
2022-09-11T16:06:49.654Z,0.55
2022-09-11T16:09:19.568Z,1.42
2022-09-11T16:11:48.034Z,0.50
2022-09-11T16:14:19.031Z,0.73
2022-09-11T16:16:49.597Z,0.17
2022-09-11T16:19:18.532Z,1.40
2022-09-11T16:21:46.043Z,0.88
2022-09-11T16:24:14.762Z,0.63
2022-09-11T16:26:43.575Z,0.50
2022-09-11T16:29:15.175Z,0.50
2022-09-11T16:31:42.665Z,1.05
2022-09-11T16:34:10.306Z,0.52
2022-09-11T16:36:40.365Z,0.20
2022-09-11T16:39:09.007Z,0.57
2022-09-11T16:41:37.122Z,0.30
2022-09-11T16:44:05.919Z,0.20
2022-09-11T16:46:35.838Z,0.30
2022-09-11T16:49:03.080Z,0.30
2022-09-11T16:51:30.658Z,0.75
2022-09-11T16:53:57.681Z,0.52
2022-09-11T16:56:26.077Z,1.25
2022-09-11T16:58:54.296Z,0.40
2022-09-11T17:01:23.854Z,0.52
2022-09-11T17:03:52.840Z,0.20
2022-09-11T17:06:21.358Z,0.20
2022-09-11T17:08:50.642Z,0.50
2022-09-11T17:11:19.754Z,0.77
2022-09-11T17:13:47.194Z,0.80
2022-09-11T17:16:19.562Z,0.30
2022-09-11T17:18:56.792Z,0.30
2022-09-11T17:21:25.017Z,0.85
2022-09-11T17:23:54.106Z,0.17
2022-09-11T17:26:21.293Z,0.40
2022-09-11T17:28:49.599Z,1.05
2022-09-11T17:31:19.269Z,1.27
2022-09-11T17:33:47.538Z,0.47
2022-09-11T17:36:17.285Z,0.95
2022-09-11T17:38:46.845Z,0.63
2022-09-11T17:41:13.991Z,0.30
2022-09-11T17:43:40.999Z,0.73
2022-09-11T17:46:16.429Z,0.75
2022-09-11T17:48:43.789Z,0.93
2022-09-11T17:51:22.975Z,0.60
2022-09-11T17:53:53.021Z,0.40
2022-09-11T17:56:22.004Z,0.60
2022-09-11T17:58:53.517Z,1.15
2022-09-11T18:01:20.630Z,0.43
2022-09-11T18:03:52.604Z,0.95
2022-09-11T18:06:28.281Z,0.73
2022-09-11T18:08:57.919Z,0.93
2022-09-11T18:11:24.973Z,0.68
2022-09-11T18:13:51.894Z,0.98
2022-09-11T18:16:18.820Z,0.85
2022-09-11T18:18:45.697Z,0.52
2022-09-11T18:21:12.669Z,0.70
2022-09-11T18:23:41.990Z,0.60
2022-09-11T18:26:19.762Z,0.80
2022-09-11T18:28:46.932Z,0.55
2022-09-11T18:31:14.108Z,0.68
2022-09-11T18:33:40.979Z,0.30
2022-09-11T18:36:08.770Z,1.20
2022-09-11T18:38:35.757Z,0.88
2022-09-11T18:41:02.577Z,0.63
2022-09-11T18:43:29.388Z,0.60
2022-09-11T18:45:56.297Z,0.65
2022-09-11T18:48:23.112Z,0.65
2022-09-11T18:50:49.942Z,1.33
2022-09-11T18:53:17.944Z,0.80
2022-09-11T18:55:44.809Z,0.70
2022-09-11T18:58:11.951Z,0.38
2022-09-11T19:00:41.177Z,0.65
2022-09-11T19:03:08.086Z,0.30
2022-09-11T19:05:34.970Z,2.53
2022-09-11T19:08:02.463Z,0.70
2022-09-11T19:10:29.581Z,1.38
2022-09-11T19:12:56.406Z,0.55
2022-09-11T19:15:23.256Z,1.20
2022-09-11T19:17:50.409Z,1.02
2022-09-11T19:20:17.379Z,0.85
2022-09-11T19:22:44.384Z,1.17
2022-09-11T19:25:11.195Z,0.95
2022-09-11T19:27:38.200Z,0.88
2022-09-11T19:30:06.776Z,1.27
2022-09-11T19:32:33.773Z,0.63
2022-09-11T19:35:00.665Z,0.40
2022-09-11T19:37:28.366Z,0.98
2022-09-11T19:39:57.185Z,1.35
2022-09-11T19:42:24.146Z,1.05
2022-09-11T19:44:54.338Z,1.38
2022-09-11T19:47:24.984Z,1.63
2022-09-11T19:49:51.856Z,0.30
2022-09-11T19:52:18.976Z,1.85
2022-09-11T19:54:45.747Z,1.02
2022-09-11T19:57:12.568Z,0.55
2022-09-11T19:59:39.353Z,0.98
2022-09-11T20:02:06.488Z,0.43
2022-09-11T20:04:33.265Z,1.40
2022-09-11T20:07:00.573Z,1.05
2022-09-11T20:09:31.321Z,0.65
2022-09-11T20:12:00.800Z,0.60
2022-09-11T20:14:29.816Z,1.33
2022-09-11T20:16:57.387Z,0.93
2022-09-11T20:19:24.890Z,0.70
2022-09-11T20:21:52.186Z,1.48
2022-09-11T20:24:19.812Z,0.98
2022-09-11T20:26:46.660Z,1.98
2022-09-11T20:29:15.360Z,1.65
2022-09-11T20:31:47.430Z,1.23
2022-09-11T20:34:15.609Z,1.20
2022-09-11T20:36:42.411Z,0.85
2022-09-11T20:39:13.407Z,1.50
2022-09-11T20:41:40.435Z,1.73
2022-09-11T20:44:07.249Z,1.38
2022-09-11T20:46:34.105Z,1.48
2022-09-11T20:49:01.106Z,0.68
2022-09-11T20:51:28.194Z,0.85
2022-09-11T20:53:56.004Z,0.93
2022-09-11T20:56:23.800Z,1.85
2022-09-11T20:58:51.521Z,1.08
2022-09-11T21:01:21.373Z,1.23
2022-09-11T21:03:52.442Z,2.45
2022-09-11T21:06:25.378Z,2.15
2022-09-11T21:08:55.422Z,1.02
2022-09-11T21:11:23.495Z,1.02
2022-09-11T21:13:50.793Z,1.83
2022-09-11T21:16:19.664Z,1.15
2022-09-11T21:18:51.552Z,1.27
2022-09-11T21:21:19.034Z,1.13
2022-09-11T21:23:45.940Z,0.95
2022-09-11T21:26:16.277Z,1.58
2022-09-11T21:28:43.526Z,1.25
2022-09-11T21:31:10.864Z,2.47
2022-09-11T21:33:39.924Z,1.10
2022-09-11T21:36:07.462Z,0.95
2022-09-11T21:38:34.347Z,2.13
2022-09-11T21:41:03.653Z,0.75
2022-09-11T21:43:30.514Z,1.95
2022-09-11T21:45:57.323Z,1.85
2022-09-11T21:48:24.591Z,1.77
2022-09-11T21:50:51.724Z,1.85
2022-09-11T21:53:19.534Z,1.42
2022-09-11T21:55:48.446Z,1.20
2022-09-11T21:58:20.747Z,0.50
2022-09-11T22:00:48.732Z,1.95
2022-09-11T22:03:17.179Z,1.95
2022-09-11T22:05:46.402Z,1.33
2022-09-11T22:08:14.813Z,1.40
2022-09-11T22:10:51.182Z,2.00
2022-09-11T22:13:19.350Z,1.02
2022-09-11T22:15:48.857Z,1.42
2022-09-11T22:18:17.444Z,1.00
2022-09-11T22:20:44.746Z,3.15
2022-09-11T22:23:21.918Z,1.88
2022-09-11T22:25:56.837Z,2.50
2022-09-11T22:28:23.649Z,1.20
2022-09-11T22:30:50.537Z,1.17
2022-09-11T22:33:17.324Z,1.48
2022-09-11T22:35:47.707Z,1.02
2022-09-11T22:38:16.627Z,2.10
2022-09-11T22:40:43.441Z,1.85
2022-09-11T22:43:10.296Z,1.13
2022-09-11T22:45:37.372Z,2.85
2022-09-11T22:48:04.957Z,1.60
2022-09-11T22:50:33.426Z,1.08
2022-09-11T22:53:01.338Z,1.45
2022-09-11T22:55:28.149Z,2.28
2022-09-11T22:57:55.247Z,1.95
2022-09-11T23:00:22.152Z,0.88
2022-09-11T23:02:48.952Z,1.98
2022-09-11T23:05:34.635Z,1.23
2022-09-11T23:08:01.552Z,0.80
2022-09-11T23:10:28.315Z,1.10
2022-09-11T23:12:55.182Z,0.95
2022-09-11T23:15:22.234Z,2.25
2022-09-11T23:17:49.134Z,1.63
2022-09-11T23:20:16.224Z,2.00
2022-09-11T23:22:43.063Z,1.05
2022-09-11T23:25:11.154Z,1.63
2022-09-11T23:27:38.123Z,0.90
2022-09-11T23:30:05.298Z,1.27
2022-09-11T23:32:32.132Z,1.52
2022-09-11T23:34:58.912Z,1.45
2022-09-11T23:37:25.773Z,1.83
2022-09-11T23:39:52.761Z,1.48
2022-09-11T23:42:19.759Z,1.95
2022-09-11T23:44:46.609Z,2.03
2022-09-11T23:47:13.604Z,0.93
2022-09-11T23:49:41.054Z,1.88
2022-09-11T23:52:07.838Z,1.60
2022-09-11T23:54:34.681Z,2.05
2022-09-11T23:57:01.806Z,1.10
2022-09-11T23:59:28.598Z,1.77
